Time;durP1;ratioP1;P1;durP2;ratioP2;P2;SDS_P1;SDS_P2;PMS_P1;PMS_P2;Temp;Humidity;BMP_temperature;BMP_pressure;BME280_temperature;BME280_humidity;BME280_pressure;Samples;Min_cycle;Max_cycle;Signal;HPM_P1;HPM_P2
2023/06/12 00:01:09;;;;;;;0.00;0.00;;;;;;;29.67;25.93;101685.84;5050869;28;20044;-72
2023/06/12 00:03:34;;;;;;;0.00;0.00;;;;;;;29.32;26.55;101685.19;5050603;28;20037;-72
2023/06/12 00:06:00;;;;;;;0.00;0.00;;;;;;;29.46;26.36;101684.97;5050594;28;20037;-73
2023/06/12 00:08:32;;;;;;;0.00;0.00;;;;;;;29.52;25.94;101689.19;5031788;28;20041;-72
2023/06/12 00:10:58;;;;;;;0.00;0.00;;;;;;;29.47;26.27;101689.34;5050114;28;20037;-72
2023/06/12 00:13:23;;;;;;;0.00;0.00;;;;;;;29.50;25.53;101694.25;5050730;28;20553;-73
2023/06/12 00:15:49;;;;;;;0.00;0.00;;;;;;;29.47;25.82;101695.72;5049930;28;20520;-73
2023/06/12 00:18:15;;;;;;;0.00;0.00;;;;;;;29.19;26.66;101691.72;5049629;28;20041;-73
2023/06/12 00:20:40;;;;;;;0.00;0.00;;;;;;;29.17;26.37;101688.47;5049697;28;20103;-72
2023/06/12 00:23:06;;;;;;;0.00;0.00;;;;;;;29.24;26.23;101693.50;5050023;28;20527;-71
2023/06/12 00:25:33;;;;;;;0.00;0.00;;;;;;;28.97;27.48;101691.88;5030810;28;20033;-72
2023/06/12 00:27:58;;;;;;;0.00;0.00;;;;;;;29.08;26.75;101684.06;5049580;28;20397;-72
2023/06/12 00:30:24;;;;;;;0.10;0.00;;;;;;;28.98;26.89;101693.53;5049870;28;20042;-72
2023/06/12 00:32:49;;;;;;;0.00;0.00;;;;;;;28.90;27.09;101691.56;5039687;28;20397;-71
2023/06/12 00:35:18;;;;;;;0.00;0.00;;;;;;;28.84;27.60;101697.59;5042831;28;20104;-72
2023/06/12 00:37:45;;;;;;;0.00;0.00;;;;;;;28.95;27.21;101698.91;5049227;28;20087;-72
2023/06/12 00:40:11;;;;;;;0.00;0.00;;;;;;;28.93;27.44;101693.72;5049309;28;20106;-74
2023/06/12 00:42:45;;;;;;;0.00;0.00;;;;;;;28.90;27.34;101688.81;5049250;28;20064;-73
2023/06/12 00:45:10;;;;;;;0.00;0.00;;;;;;;28.63;28.18;101687.22;5049639;28;20488;-73
2023/06/12 00:47:36;;;;;;;0.00;0.00;;;;;;;28.63;27.65;101689.16;5049820;28;20036;-72
2023/06/12 00:50:02;;;;;;;0.00;0.00;;;;;;;28.78;28.00;101685.88;5049924;28;20102;-72
2023/06/12 00:52:34;;;;;;;0.00;0.00;;;;;;;28.60;28.15;101681.50;5049743;28;20029;-72
2023/06/12 00:55:00;;;;;;;0.00;0.00;;;;;;;28.70;27.70;101677.63;5049902;28;20112;-72
2023/06/12 00:57:27;;;;;;;0.00;0.00;;;;;;;28.69;27.47;101685.09;5049677;28;20044;-73
2023/06/12 00:59:53;;;;;;;0.00;0.00;;;;;;;28.86;27.82;101682.31;5031418;28;20079;-72
2023/06/12 01:02:20;;;;;;;0.00;0.00;;;;;;;28.68;27.81;101686.22;5049798;28;20123;-73
2023/06/12 01:04:49;;;;;;;0.00;0.00;;;;;;;28.68;27.59;101683.44;5049500;28;20111;-73
2023/06/12 01:07:51;;;;;;;0.00;0.00;;;;;;;28.85;27.95;101683.47;5032455;28;20074;-72
2023/06/12 01:10:39;;;;;;;0.00;0.00;;;;;;;28.71;28.17;101677.28;5039507;28;20127;-71
2023/06/12 01:13:05;;;;;;;0.00;0.00;;;;;;;28.46;28.57;101684.41;5049710;28;20128;-72
2023/06/12 01:15:31;;;;;;;0.00;0.00;;;;;;;28.34;29.00;101686.97;5034515;28;20136;-72
2023/06/12 01:17:58;;;;;;;0.00;0.00;;;;;;;28.24;29.08;101680.97;5028067;28;20105;-72
2023/06/12 01:20:24;;;;;;;0.00;0.00;;;;;;;28.13;29.50;101674.94;5044284;28;20038;-72
2023/06/12 01:22:59;;;;;;;0.00;0.00;;;;;;;28.12;29.34;101676.06;5043430;28;20082;-73
2023/06/12 01:25:46;;;;;;;0.00;0.00;;;;;;;28.15;29.23;101683.72;5048874;28;20029;-73
2023/06/12 01:28:51;;;;;;;0.00;0.00;;;;;;;28.06;29.51;101676.53;5049246;28;20499;-73
2023/06/12 01:31:28;;;;;;;0.00;0.00;;;;;;;28.06;29.92;101684.84;5053262;28;20464;-73
2023/06/12 01:34:06;;;;;;;0.00;0.00;;;;;;;27.93;30.12;101683.78;5051146;28;20074;-72
2023/06/12 01:36:36;;;;;;;0.00;0.00;;;;;;;27.91;30.17;101676.97;5008667;28;20045;-72
2023/06/12 01:39:04;;;;;;;0.00;0.00;;;;;;;27.83;30.02;101689.63;5033062;28;20559;-72
2023/06/12 01:41:31;;;;;;;0.00;0.00;;;;;;;27.80;30.25;101687.50;5032715;28;20034;-72
2023/06/12 01:43:56;;;;;;;0.00;0.00;;;;;;;27.87;30.23;101684.28;5046986;28;20094;-72
2023/06/12 01:46:21;;;;;;;0.00;0.00;;;;;;;27.65;30.77;101680.47;5036873;28;20033;-73
2023/06/12 01:48:47;;;;;;;0.00;0.00;;;;;;;27.50;31.40;101686.41;5053226;28;20389;-72
2023/06/12 01:51:12;;;;;;;0.00;0.00;;;;;;;27.66;31.16;101684.03;5040185;28;20053;-73
2023/06/12 01:53:38;;;;;;;0.00;0.00;;;;;;;27.66;31.26;101679.31;5046551;28;20029;-73
2023/06/12 01:56:03;;;;;;;0.00;0.00;;;;;;;27.46;31.09;101687.38;5031427;28;20056;-72
2023/06/12 01:58:29;;;;;;;0.00;0.00;;;;;;;27.38;31.51;101688.13;5049530;28;20082;-72
2023/06/12 02:00:55;;;;;;;0.00;0.00;;;;;;;27.38;31.48;101686.16;5042877;28;20025;-72
2023/06/12 02:03:22;;;;;;;0.10;0.00;;;;;;;27.25;31.87;101700.84;5043944;28;20168;-71
2023/06/12 02:05:48;;;;;;;0.00;0.00;;;;;;;27.07;32.17;101698.28;5034630;28;20033;-73
2023/06/12 02:08:14;;;;;;;0.00;0.00;;;;;;;27.04;32.38;101694.22;5045724;28;20029;-72
2023/06/12 02:10:39;;;;;;;0.00;0.00;;;;;;;27.25;32.22;101694.50;5012993;28;20037;-72
2023/06/12 02:13:05;;;;;;;0.00;0.00;;;;;;;27.27;31.99;101693.06;5033190;28;20029;-72
2023/06/12 02:15:30;;;;;;;0.00;0.00;;;;;;;27.09;32.04;101694.09;5028325;28;20045;-72
2023/06/12 02:17:56;;;;;;;0.00;0.00;;;;;;;27.06;31.98;101694.72;5033618;28;20128;-73
2023/06/12 02:20:21;;;;;;;0.00;0.00;;;;;;;27.12;31.67;101693.47;5048014;28;20041;-73
2023/06/12 02:22:47;;;;;;;0.00;0.00;;;;;;;26.94;32.53;101700.81;5042768;28;20470;-72
2023/06/12 02:25:12;;;;;;;0.00;0.00;;;;;;;26.74;32.85;101694.97;5029857;28;20029;-73
2023/06/12 02:27:38;;;;;;;0.00;0.00;;;;;;;26.76;32.85;101688.03;5032309;28;20033;-73
2023/06/12 02:30:03;;;;;;;0.00;0.00;;;;;;;26.75;33.13;101700.16;5016494;28;20532;-73
2023/06/12 02:32:29;;;;;;;0.10;0.00;;;;;;;26.75;32.58;101702.13;5043753;28;20025;-73
2023/06/12 02:34:54;;;;;;;0.00;0.00;;;;;;;26.90;32.53;101694.31;5049256;28;20056;-73
2023/06/12 02:37:20;;;;;;;0.00;0.00;;;;;;;26.73;32.70;101696.13;5037121;28;20397;-72
2023/06/12 02:39:45;;;;;;;0.00;0.00;;;;;;;26.66;33.31;101688.25;5039053;28;20045;-72
2023/06/12 02:42:11;;;;;;;0.08;0.00;;;;;;;26.65;33.38;101691.31;5035962;28;20027;-73
2023/06/12 02:44:36;;;;;;;0.00;0.00;;;;;;;26.71;33.44;101693.66;5044766;28;20084;-72
2023/06/12 02:47:02;;;;;;;0.10;0.10;;;;;;;26.58;33.54;101699.19;5030982;28;20497;-73
2023/06/12 02:49:29;;;;;;;0.00;0.00;;;;;;;26.75;33.08;101704.91;5064506;28;20044;-73
2023/06/12 02:51:55;;;;;;;0.10;0.00;;;;;;;26.52;33.52;101695.72;5045776;28;20059;-72
2023/06/12 02:54:24;;;;;;;0.00;0.00;;;;;;;26.34;33.62;101693.16;5037837;28;20041;-73
2023/06/12 02:56:50;;;;;;;0.00;0.00;;;;;;;26.26;34.13;101699.38;5052022;28;20036;-73
2023/06/12 02:59:18;;;;;;;0.00;0.00;;;;;;;26.25;33.88;101701.31;5051587;28;20033;-73
2023/06/12 03:01:44;;;;;;;0.00;0.00;;;;;;;26.39;33.38;101696.59;5030283;28;20041;-72
2023/06/12 03:04:19;;;;;;;0.00;0.00;;;;;;;26.24;33.79;101698.88;5045498;28;20397;-71
2023/06/12 03:06:44;;;;;;;0.08;0.08;;;;;;;26.34;34.05;101695.91;5040950;28;20037;-73
2023/06/12 03:09:10;;;;;;;0.00;0.00;;;;;;;26.30;34.06;101692.94;5040609;28;20025;-71
2023/06/12 03:11:36;;;;;;;0.00;0.00;;;;;;;26.02;34.58;101699.59;5035957;28;20021;-72
2023/06/12 03:14:02;;;;;;;0.00;0.00;;;;;;;26.04;34.94;101695.38;5048252;28;20029;-73
2023/06/12 03:16:28;;;;;;;0.00;0.00;;;;;;;26.06;34.57;101703.41;5040323;28;20061;-72
2023/06/12 03:18:53;;;;;;;0.00;0.00;;;;;;;26.14;34.32;101702.69;5047301;28;20040;-72
2023/06/12 03:21:19;;;;;;;0.10;0.10;;;;;;;25.96;35.24;101703.56;5048563;28;20045;-72
2023/06/12 03:23:44;;;;;;;0.00;0.00;;;;;;;25.80;35.71;101700.31;5051114;28;20032;-73
2023/06/12 03:26:10;;;;;;;0.00;0.00;;;;;;;25.78;35.49;101701.72;5044668;28;20358;-72
2023/06/12 03:28:35;;;;;;;0.00;0.00;;;;;;;25.64;35.73;101701.72;5039416;28;20033;-72
2023/06/12 03:31:00;;;;;;;0.00;0.00;;;;;;;25.55;36.22;101703.53;5039876;28;20048;-72
2023/06/12 03:33:26;;;;;;;0.00;0.00;;;;;;;25.70;36.06;101696.94;5046368;28;20685;-71
2023/06/12 03:35:52;;;;;;;0.00;0.00;;;;;;;25.59;36.39;101701.00;5030181;28;20046;-72
2023/06/12 03:38:17;;;;;;;0.00;0.00;;;;;;;25.66;36.28;101699.50;5044612;28;20350;-72
2023/06/12 03:40:43;;;;;;;0.00;0.00;;;;;;;25.66;35.98;101696.72;5036512;28;20033;-73
2023/06/12 03:43:08;;;;;;;0.00;0.00;;;;;;;25.63;36.15;101691.03;5036239;28;20694;-73
2023/06/12 03:45:33;;;;;;;0.00;0.00;;;;;;;25.70;35.91;101695.00;5061169;28;20149;-73
2023/06/12 03:47:59;;;;;;;0.10;0.10;;;;;;;25.62;36.18;101700.38;5060544;28;20519;-73
2023/06/12 03:50:24;;;;;;;0.00;0.00;;;;;;;25.61;36.34;101696.03;5042259;28;20039;-72
2023/06/12 03:52:50;;;;;;;0.00;0.00;;;;;;;25.76;35.97;101703.97;5061545;28;20040;-72
2023/06/12 03:55:16;;;;;;;0.10;0.10;;;;;;;25.78;36.21;101702.56;5059664;28;20028;-73
2023/06/12 03:57:41;;;;;;;0.00;0.00;;;;;;;25.57;36.36;101706.00;5060569;28;20602;-73
2023/06/12 04:00:08;;;;;;;0.00;0.00;;;;;;;25.73;36.00;101710.09;5043534;28;20451;-73
2023/06/12 04:02:34;;;;;;;0.00;0.00;;;;;;;25.80;35.76;101705.81;5050741;28;20116;-74
2023/06/12 04:05:00;;;;;;;0.00;0.00;;;;;;;25.63;36.09;101705.59;5046103;28;20122;-73
2023/06/12 04:07:26;;;;;;;0.00;0.00;;;;;;;25.56;36.43;101710.69;5049049;28;20083;-72
2023/06/12 04:09:51;;;;;;;0.10;0.10;;;;;;;25.77;35.83;101706.41;5046835;28;20541;-73
2023/06/12 04:12:17;;;;;;;0.00;0.00;;;;;;;25.66;35.78;101712.44;5060179;28;20029;-73
2023/06/12 04:14:42;;;;;;;0.13;0.10;;;;;;;25.78;35.72;101708.06;5044096;28;20025;-68
2023/06/12 04:17:08;;;;;;;0.00;0.00;;;;;;;26.00;35.45;101705.38;5032005;28;20128;-69
2023/06/12 04:19:34;;;;;;;0.00;0.00;;;;;;;26.04;35.44;101720.19;5042208;28;20033;-71
2023/06/12 04:22:01;;;;;;;0.00;0.00;;;;;;;26.17;35.03;101717.75;5050176;28;20041;-69
2023/06/12 04:24:30;;;;;;;0.00;0.00;;;;;;;26.26;35.21;101710.41;5050399;28;20049;-69
2023/06/12 04:27:00;;;;;;;0.00;0.00;;;;;;;26.07;35.29;101710.53;5050488;28;20033;-70
2023/06/12 04:29:26;;;;;;;0.00;0.00;;;;;;;26.17;35.32;101715.00;5033262;28;20122;-69
2023/06/12 04:31:54;;;;;;;0.00;0.00;;;;;;;26.21;35.53;101710.50;5045246;28;20060;-69
2023/06/12 04:34:20;;;;;;;0.00;0.00;;;;;;;26.13;35.21;101722.25;5038132;28;20602;-68
2023/06/12 04:36:46;;;;;;;0.00;0.00;;;;;;;26.08;35.27;101714.94;5011705;28;20033;-69
2023/06/12 04:39:13;;;;;;;0.00;0.00;;;;;;;26.33;35.53;101705.28;5031009;28;20029;-69
2023/06/12 04:41:40;;;;;;;0.00;0.00;;;;;;;26.41;35.03;101712.81;5050197;28;20047;-68
2023/06/12 04:44:06;;;;;;;0.00;0.00;;;;;;;26.46;34.93;101715.44;5029384;28;20374;-70
2023/06/12 04:46:32;;;;;;;0.00;0.00;;;;;;;26.35;35.13;101709.38;5035351;28;20060;-68
2023/06/12 04:48:59;;;;;;;0.00;0.00;;;;;;;26.37;35.19;101711.81;5032691;28;20029;-70
2023/06/12 04:51:24;;;;;;;0.00;0.00;;;;;;;26.46;34.76;101708.00;5044663;28;20072;-69
2023/06/12 04:53:53;;;;;;;0.00;0.00;;;;;;;26.28;35.21;101713.69;5050447;28;20198;-69
2023/06/12 04:56:21;;;;;;;0.00;0.00;;;;;;;26.40;35.20;101711.16;5049207;28;20033;-69
2023/06/12 04:58:47;;;;;;;0.00;0.00;;;;;;;26.26;35.54;101716.72;5040596;28;20029;-68
2023/06/12 05:01:14;;;;;;;0.00;0.00;;;;;;;26.33;35.35;101714.38;5042912;28;20092;-70
2023/06/12 05:03:40;;;;;;;0.00;0.00;;;;;;;26.31;35.59;101713.03;5037775;28;20175;-69
2023/06/12 05:06:06;;;;;;;0.00;0.00;;;;;;;26.40;35.62;101709.25;5033994;28;20104;-69
2023/06/12 05:08:32;;;;;;;0.00;0.00;;;;;;;26.64;35.00;101715.31;5042988;28;20112;-68
2023/06/12 05:10:58;;;;;;;0.00;0.00;;;;;;;26.46;35.32;101720.97;5040597;28;20095;-69
2023/06/12 05:13:23;;;;;;;0.00;0.00;;;;;;;26.61;35.03;101712.38;5049697;28;20039;-68
2023/06/12 05:15:48;;;;;;;0.00;0.00;;;;;;;26.52;35.36;101720.56;5052974;28;20418;-69
2023/06/12 05:18:14;;;;;;;0.00;0.00;;;;;;;26.72;35.85;101722.06;5054648;28;20028;-69
2023/06/12 05:20:39;;;;;;;0.03;0.03;;;;;;;26.87;35.53;101728.03;5061630;28;20029;-69
2023/06/12 05:23:05;;;;;;;0.00;0.00;;;;;;;27.18;34.31;101722.56;5061497;28;20082;-68
2023/06/12 05:25:30;;;;;;;0.00;0.00;;;;;;;27.27;34.21;101730.91;5066968;28;20044;-69
2023/06/12 05:27:56;;;;;;;0.00;0.00;;;;;;;27.14;34.74;101724.34;5052754;28;20486;-69
2023/06/12 05:30:21;;;;;;;0.00;0.00;;;;;;;27.21;34.86;101729.38;5063490;28;20033;-68
2023/06/12 05:32:47;;;;;;;0.00;0.00;;;;;;;27.30;34.46;101727.53;5059389;28;20112;-69
2023/06/12 05:35:12;;;;;;;0.00;0.00;;;;;;;27.42;34.43;101725.03;5037987;28;20459;-68
2023/06/12 05:37:38;;;;;;;0.00;0.00;;;;;;;27.20;34.87;101725.84;5065889;28;20048;-69
2023/06/12 05:40:05;;;;;;;0.08;0.00;;;;;;;26.98;35.52;101730.53;5036126;28;20041;-68
2023/06/12 05:42:31;;;;;;;0.00;0.00;;;;;;;27.20;34.98;101725.84;5061286;28;20029;-68
2023/06/12 05:44:57;;;;;;;0.00;0.00;;;;;;;27.42;34.59;101725.03;5060645;28;20031;-69
2023/06/12 05:47:22;;;;;;;0.00;0.00;;;;;;;27.54;34.08;101731.56;5054790;28;20029;-69
2023/06/12 05:49:48;;;;;;;0.08;0.00;;;;;;;27.39;34.89;101722.88;5066770;28;20122;-69
2023/06/12 05:52:14;;;;;;;0.00;0.00;;;;;;;27.31;34.88;101726.38;5053977;28;20044;-68
2023/06/12 05:54:39;;;;;;;0.00;0.00;;;;;;;27.38;34.60;101732.31;5060682;28;20044;-69
2023/06/12 05:57:04;;;;;;;0.00;0.00;;;;;;;27.43;34.44;101734.94;5066095;28;20484;-69
2023/06/12 05:59:30;;;;;;;0.10;0.00;;;;;;;27.03;36.04;101724.91;5053916;28;20517;-68
2023/06/12 06:01:56;;;;;;;0.00;0.00;;;;;;;27.38;35.25;101740.59;5059493;28;20032;-69
2023/06/12 06:04:21;;;;;;;0.00;0.00;;;;;;;26.68;36.31;101729.28;5063190;28;20426;-69
2023/06/12 06:06:47;;;;;;;0.00;0.00;;;;;;;27.27;35.48;101744.69;5059841;28;20039;-71
2023/06/12 06:09:15;;;;;;;0.00;0.00;;;;;;;27.06;36.00;101738.06;5068390;28;20032;-69
2023/06/12 06:11:40;;;;;;;0.00;0.00;;;;;;;27.78;34.54;101740.31;5056380;28;20505;-68
2023/06/12 06:14:06;;;;;;;0.00;0.00;;;;;;;27.63;35.22;101742.69;5067431;28;20029;-70
2023/06/12 06:16:31;;;;;;;0.00;0.00;;;;;;;27.40;34.46;101741.09;5059146;28;20032;-68
2023/06/12 06:18:56;;;;;;;0.00;0.00;;;;;;;27.55;34.43;101743.44;5060776;28;20044;-68
2023/06/12 06:21:22;;;;;;;0.00;0.00;;;;;;;27.52;34.42;101747.66;5065987;28;20037;-69
2023/06/12 06:23:47;;;;;;;0.00;0.00;;;;;;;27.90;33.79;101748.00;5054186;28;20035;-68
2023/06/12 06:26:12;;;;;;;0.00;0.00;;;;;;;28.08;34.25;101748.91;5055859;28;20094;-68
2023/06/12 06:28:38;;;;;;;0.00;0.00;;;;;;;28.26;33.73;101740.34;5044363;28;20045;-69
2023/06/12 06:31:09;;;;;;;0.00;0.00;;;;;;;28.35;33.15;101740.34;5062749;28;20698;-68
2023/06/12 06:33:35;;;;;;;0.00;0.00;;;;;;;28.37;33.47;101746.38;5054958;28;20094;-69
2023/06/12 06:36:01;;;;;;;0.00;0.00;;;;;;;28.03;33.70;101749.06;5067447;28;20504;-68
2023/06/12 06:38:27;;;;;;;0.00;0.00;;;;;;;28.30;33.85;101751.56;5050846;28;20030;-69
2023/06/12 06:40:52;;;;;;;0.00;0.00;;;;;;;28.09;34.01;101745.00;5044483;28;20037;-72
2023/06/12 06:43:18;;;;;;;0.00;0.00;;;;;;;28.48;33.17;101754.03;5046940;28;20033;-71
2023/06/12 06:45:44;;;;;;;0.00;0.00;;;;;;;28.65;32.92;101747.75;5037725;28;20037;-73
2023/06/12 06:48:12;;;;;;;0.00;0.00;;;;;;;28.04;34.07;101754.25;5025041;28;20397;-72
2023/06/12 06:50:37;;;;;;;0.20;0.08;;;;;;;28.00;34.35;101747.75;5043211;28;20211;-72
2023/06/12 06:53:03;;;;;;;0.00;0.00;;;;;;;28.86;33.01;101747.91;5015326;28;20033;-70
2023/06/12 06:55:28;;;;;;;0.00;0.00;;;;;;;28.91;33.55;101744.97;5023115;28;20022;-71
2023/06/12 06:57:54;;;;;;;0.00;0.00;;;;;;;29.22;33.31;101745.63;5022236;28;20041;-71
2023/06/12 07:00:21;;;;;;;0.00;0.00;;;;;;;29.17;33.26;101737.50;5049346;28;20045;-72
2023/06/12 07:02:47;;;;;;;0.00;0.00;;;;;;;29.10;33.25;101737.97;5050045;28;20037;-71
2023/06/12 07:05:17;;;;;;;0.00;0.00;;;;;;;28.96;33.95;101736.50;5051483;28;20041;-69
2023/06/12 07:07:47;;;;;;;0.00;0.00;;;;;;;29.11;33.13;101736.81;5033718;28;20099;-69
2023/06/12 07:10:12;;;;;;;0.00;0.00;;;;;;;29.34;33.20;101732.75;5030948;28;20053;-70
2023/06/12 07:12:38;;;;;;;0.00;0.00;;;;;;;29.21;33.47;101744.00;5025096;28;20402;-70
2023/06/12 07:15:03;;;;;;;0.00;0.00;;;;;;;29.15;33.69;101737.03;5050925;28;20549;-71
2023/06/12 07:17:29;;;;;;;0.00;0.00;;;;;;;29.27;33.18;101729.66;5050704;28;20064;-71
2023/06/12 07:19:55;;;;;;;0.00;0.00;;;;;;;29.22;33.50;101729.84;5050224;28;20035;-71
2023/06/12 07:22:21;;;;;;;0.10;0.00;;;;;;;29.41;32.98;101732.22;5051278;28;20388;-71
2023/06/12 07:24:46;;;;;;;0.00;0.00;;;;;;;28.96;34.01;101733.72;5050793;28;20036;-71
2023/06/12 07:27:11;;;;;;;0.00;0.00;;;;;;;29.04;34.15;101733.75;5050718;28;20059;-70
2023/06/12 07:29:37;;;;;;;0.00;0.00;;;;;;;29.42;33.39;101731.88;5050480;28;20025;-71
2023/06/12 07:32:02;;;;;;;0.00;0.00;;;;;;;29.75;32.45;101734.09;5050413;28;20033;-71
2023/06/12 07:34:28;;;;;;;0.00;0.00;;;;;;;29.53;32.57;101729.59;5051168;28;20051;-70
2023/06/12 07:36:53;;;;;;;0.00;0.00;;;;;;;29.70;32.12;101735.06;5050422;28;20033;-69
2023/06/12 07:39:19;;;;;;;0.00;0.00;;;;;;;30.04;31.99;101725.81;5050162;28;20045;-71
2023/06/12 07:41:44;;;;;;;0.00;0.00;;;;;;;29.95;32.26;101717.56;5050640;28;20036;-70
2023/06/12 07:44:13;;;;;;;0.00;0.00;;;;;;;30.00;31.92;101717.34;5050542;28;20035;-70
2023/06/12 07:46:41;;;;;;;0.00;0.00;;;;;;;30.60;31.64;101721.72;5030340;28;20477;-69
2023/06/12 07:49:06;;;;;;;0.00;0.00;;;;;;;30.89;30.77;101721.66;5050530;28;20037;-71
2023/06/12 07:51:31;;;;;;;0.00;0.00;;;;;;;30.74;30.20;101719.47;5050593;28;20044;-71
2023/06/12 07:53:57;;;;;;;0.00;0.00;;;;;;;31.25;29.56;101729.31;5050715;28;20041;-70
2023/06/12 07:56:22;;;;;;;0.00;0.00;;;;;;;31.36;29.30;101719.38;5030959;28;20041;-71
2023/06/12 07:58:48;;;;;;;0.00;0.00;;;;;;;31.43;29.89;101723.25;5049617;28;20481;-71
2023/06/12 08:01:13;;;;;;;0.00;0.00;;;;;;;30.76;30.34;101719.97;5050852;28;20469;-69
2023/06/12 08:03:39;;;;;;;0.00;0.00;;;;;;;31.49;29.78;101715.53;5049309;28;20044;-71
2023/06/12 08:06:15;;;;;;;0.00;0.00;;;;;;;31.98;29.56;101717.19;5049487;28;20682;-71
2023/06/12 08:08:42;;;;;;;0.00;0.00;;;;;;;32.19;29.05;101720.66;5049382;28;20041;-72
2023/06/12 08:11:08;;;;;;;0.00;0.00;;;;;;;32.07;29.18;101722.63;5044806;28;20531;-72
2023/06/12 08:13:34;;;;;;;0.00;0.00;;;;;;;31.86;29.17;101726.31;5048818;28;20025;-71
2023/06/12 08:16:00;;;;;;;0.00;0.00;;;;;;;32.05;28.99;101730.50;5036189;28;20045;-71
2023/06/12 08:18:25;;;;;;;0.00;0.00;;;;;;;32.41;28.61;101731.25;5041752;28;20033;-70
2023/06/12 08:20:50;;;;;;;0.00;0.00;;;;;;;32.51;28.23;101724.47;5022747;28;20037;-71
2023/06/12 08:23:16;;;;;;;0.00;0.00;;;;;;;32.26;28.78;101723.66;5045469;28;20373;-71
2023/06/12 08:25:43;;;;;;;0.00;0.00;;;;;;;32.59;28.16;101715.16;5043082;28;20037;-70
2023/06/12 08:28:08;;;;;;;0.00;0.00;;;;;;;32.97;27.72;101720.25;5042673;28;20029;-71
2023/06/12 08:30:34;;;;;;;0.00;0.00;;;;;;;33.00;27.38;101723.16;5040467;28;20167;-71
2023/06/12 08:32:59;;;;;;;0.00;0.00;;;;;;;33.24;27.36;101717.44;5035118;28;20042;-71
2023/06/12 08:35:25;;;;;;;0.00;0.00;;;;;;;33.06;26.62;101712.56;5030336;28;20562;-72
2023/06/12 08:37:50;;;;;;;0.00;0.00;;;;;;;33.62;26.23;101711.31;5061715;28;20047;-69
2023/06/12 08:40:16;;;;;;;0.00;0.00;;;;;;;33.52;25.97;101714.63;5045451;28;20021;-71
2023/06/12 08:42:48;;;;;;;0.00;0.00;;;;;;;33.33;26.22;101714.50;5055287;28;20093;-71
2023/06/12 08:45:15;;;;;;;0.00;0.00;;;;;;;33.20;25.62;101715.75;5051663;28;20043;-72
2023/06/12 08:47:47;;;;;;;0.00;0.00;;;;;;;33.53;25.54;101721.84;5062159;28;20044;-71
2023/06/12 08:50:13;;;;;;;0.00;0.00;;;;;;;33.50;25.76;101717.78;5051016;28;20531;-70
2023/06/12 08:52:39;;;;;;;0.00;0.00;;;;;;;33.60;25.76;101708.06;5055845;28;20052;-69
2023/06/12 08:55:07;;;;;;;0.00;0.00;;;;;;;33.88;25.20;101706.00;5058838;28;20740;-70
2023/06/12 08:57:38;;;;;;;0.00;0.00;;;;;;;34.21;24.59;101711.16;5024001;28;20408;-69
2023/06/12 09:00:09;;;;;;;0.00;0.00;;;;;;;34.05;24.06;101700.03;5044512;28;20080;-71
2023/06/12 09:02:35;;;;;;;0.00;0.00;;;;;;;34.13;24.14;101699.03;5054053;28;20036;-70
2023/06/12 09:05:06;;;;;;;0.00;0.00;;;;;;;33.84;23.95;101695.91;5052937;28;20024;-70
2023/06/12 09:07:35;;;;;;;0.00;0.00;;;;;;;33.80;23.55;101698.63;5061500;28;20029;-71
2023/06/12 09:10:01;;;;;;;0.00;0.00;;;;;;;34.67;22.61;101699.06;5044198;28;20036;-70
2023/06/12 09:12:29;;;;;;;0.00;0.00;;;;;;;34.65;22.42;101698.63;5052925;28;20378;-74
2023/06/12 09:14:59;;;;;;;0.00;0.00;;;;;;;34.91;21.84;101693.16;5052691;28;20033;-70
2023/06/12 09:17:28;;;;;;;0.00;0.00;;;;;;;35.21;21.70;101698.94;5043941;28;20048;-68
2023/06/12 09:19:54;;;;;;;0.00;0.00;;;;;;;35.38;21.01;101697.66;5061090;28;20025;-71
2023/06/12 09:22:21;;;;;;;0.00;0.00;;;;;;;35.14;21.70;101688.47;5050482;28;20408;-69
2023/06/12 09:24:47;;;;;;;0.00;0.00;;;;;;;35.35;20.86;101696.41;5063217;28;20067;-70
2023/06/12 09:27:13;;;;;;;0.00;0.00;;;;;;;35.38;20.49;101697.66;5050390;28;20039;-69
2023/06/12 09:29:40;;;;;;;0.00;0.00;;;;;;;35.31;20.95;101687.97;5061202;28;20123;-72
2023/06/12 09:32:11;;;;;;;0.00;0.00;;;;;;;34.96;20.06;101683.69;5043406;28;20036;-71
2023/06/12 09:34:37;;;;;;;0.00;0.00;;;;;;;34.81;20.61;101679.00;5044031;28;20067;-70
2023/06/12 09:37:06;;;;;;;0.00;0.00;;;;;;;35.05;19.55;101685.09;5044261;28;20040;-71
2023/06/12 09:39:32;;;;;;;0.00;0.00;;;;;;;35.65;19.54;101688.19;5044471;28;20118;-70
2023/06/12 09:41:58;;;;;;;0.00;0.00;;;;;;;36.01;18.77;101682.00;5045802;28;20048;-71
2023/06/12 09:44:29;;;;;;;0.00;0.00;;;;;;;35.76;19.40;101687.16;5056086;28;20036;-71
2023/06/12 09:47:02;;;;;;;0.00;0.00;;;;;;;35.60;18.92;101686.50;5056517;28;20021;-70
2023/06/12 09:49:28;;;;;;;0.00;0.00;;;;;;;35.21;19.42;101687.78;5048277;28;20403;-71
2023/06/12 09:51:54;;;;;;;0.00;0.00;;;;;;;35.78;19.17;101682.00;5064695;28;20093;-70
2023/06/12 09:54:21;;;;;;;0.00;0.00;;;;;;;36.15;18.78;101682.19;5056484;28;20059;-71
2023/06/12 09:56:52;;;;;;;0.00;0.00;;;;;;;36.64;18.95;101687.69;5065113;28;20037;-71
2023/06/12 09:59:19;;;;;;;0.00;0.00;;;;;;;35.78;18.97;101681.19;5067259;28;20040;-70
2023/06/12 10:01:55;;;;;;;0.00;0.00;;;;;;;36.98;17.97;101678.91;5049590;28;20108;-69
2023/06/12 10:04:35;;;;;;;0.00;0.00;;;;;;;37.10;17.26;101675.00;5055598;28;20040;-71
2023/06/12 10:07:10;;;;;;;0.00;0.00;;;;;;;36.68;17.73;101682.94;5055661;28;20044;-70
2023/06/12 10:09:36;;;;;;;0.00;0.00;;;;;;;37.37;16.86;101673.69;5063329;28;20032;-70
2023/06/12 10:12:01;;;;;;;0.00;0.00;;;;;;;37.36;16.98;101672.09;5049166;28;20033;-71
2023/06/12 10:14:28;;;;;;;0.00;0.00;;;;;;;37.35;17.01;101675.28;5047390;28;20099;-69
2023/06/12 10:16:56;;;;;;;0.00;0.00;;;;;;;37.90;16.42;101671.34;5059695;28;20029;-71
2023/06/12 10:19:24;;;;;;;0.00;0.00;;;;;;;37.47;16.53;101672.97;5051406;28;20024;-71
2023/06/12 10:21:52;;;;;;;0.00;0.00;;;;;;;37.54;16.08;101670.25;5064067;28;20036;-72
2023/06/12 10:24:19;;;;;;;0.00;0.00;;;;;;;37.16;17.14;101672.66;5047684;28;20037;-72
2023/06/12 10:26:45;;;;;;;0.00;0.00;;;;;;;37.88;16.30;101661.72;5058153;28;20482;-72
2023/06/12 10:29:28;;;;;;;0.00;0.00;;;;;;;37.27;16.13;101667.97;5053033;28;20025;-71
2023/06/12 10:31:53;;;;;;;0.00;0.00;;;;;;;36.55;17.08;101661.94;5060975;28;20062;-72
2023/06/12 10:34:20;;;;;;;0.00;0.00;;;;;;;37.44;16.57;101658.94;5054784;28;20028;-71
2023/06/12 10:36:47;;;;;;;0.00;0.00;;;;;;;37.52;16.42;101655.81;5056893;28;20533;-72
2023/06/12 10:39:15;;;;;;;0.00;0.00;;;;;;;37.75;15.65;101649.97;5060900;28;20044;-71
2023/06/12 10:41:51;;;;;;;0.00;0.00;;;;;;;38.11;15.68;101645.41;5064155;28;20028;-72
2023/06/12 10:44:36;;;;;;;0.00;0.00;;;;;;;38.48;15.25;101646.81;5060413;28;20037;-70
2023/06/12 10:47:03;;;;;;;0.00;0.00;;;;;;;38.20;15.39;101652.28;5061779;28;20416;-73
2023/06/12 10:49:29;;;;;;;0.00;0.00;;;;;;;37.44;15.68;101644.91;5048247;28;20123;-71
2023/06/12 10:51:54;;;;;;;0.00;0.00;;;;;;;37.68;15.19;101642.28;5047127;28;20039;-71
2023/06/12 10:54:27;;;;;;;0.00;0.00;;;;;;;37.36;15.36;101629.22;5053728;28;20039;-71
2023/06/12 10:56:59;;;;;;;0.00;0.00;;;;;;;38.68;14.77;101638.88;5064171;28;20032;-71
2023/06/12 10:59:33;;;;;;;0.00;0.00;;;;;;;38.81;14.24;101633.69;5059106;28;20473;-71
2023/06/12 11:01:59;;;;;;;0.00;0.00;;;;;;;38.86;14.69;101634.09;5035520;28;20024;-71
2023/06/12 11:04:25;;;;;;;0.00;0.00;;;;;;;39.30;14.21;101628.16;5059485;28;20571;-71
2023/06/12 11:06:51;;;;;;;0.00;0.00;;;;;;;39.39;14.12;101629.34;5045816;28;20029;-69
2023/06/12 11:09:16;;;;;;;0.00;0.00;;;;;;;38.57;14.74;101621.94;5035546;28;20037;-71
2023/06/12 11:11:47;;;;;;;0.00;0.00;;;;;;;39.57;13.86;101635.00;5033613;28;20040;-72
2023/06/12 11:14:13;;;;;;;0.00;0.00;;;;;;;39.67;13.31;101633.41;5041877;28;20091;-71
2023/06/12 11:16:41;;;;;;;0.00;0.00;;;;;;;39.42;12.85;101624.94;5046455;28;20017;-72
2023/06/12 11:19:07;;;;;;;0.00;0.00;;;;;;;40.00;12.57;101621.69;5046344;28;20548;-72
2023/06/12 11:21:37;;;;;;;0.00;0.00;;;;;;;39.38;12.82;101619.31;5046165;28;20033;-72
2023/06/12 11:24:06;;;;;;;0.00;0.00;;;;;;;39.52;13.16;101612.91;5046823;28;20026;-71